createdAt,value
2023-04-26T00:01:02.922Z,12.28
2023-04-26T00:03:29.643Z,12.26
2023-04-26T00:05:56.334Z,12.18
2023-04-26T00:08:22.879Z,12.16
2023-04-26T00:10:51.992Z,12.23
2023-04-26T00:13:18.510Z,12.10
2023-04-26T00:15:44.962Z,11.98
2023-04-26T00:18:11.463Z,12.03
2023-04-26T00:20:38.059Z,12.02
2023-04-26T00:23:04.644Z,11.97
2023-04-26T00:25:31.115Z,11.96
2023-04-26T00:27:57.600Z,11.96
2023-04-26T00:30:24.063Z,11.85
2023-04-26T00:32:50.579Z,11.94
2023-04-26T00:35:17.134Z,11.89
2023-04-26T00:37:43.658Z,11.93
2023-04-26T00:40:11.039Z,11.84
2023-04-26T00:42:38.886Z,11.91
2023-04-26T00:45:06.450Z,11.81
2023-04-26T00:47:33.559Z,11.88
2023-04-26T00:50:03.834Z,11.93
2023-04-26T00:52:31.764Z,11.98
2023-04-26T00:54:58.313Z,11.90
2023-04-26T00:57:25.578Z,11.81
2023-04-26T00:59:52.035Z,11.79
2023-04-26T01:02:18.996Z,11.81
2023-04-26T01:04:45.656Z,11.75
2023-04-26T01:07:12.352Z,11.82
2023-04-26T01:09:40.420Z,11.81
2023-04-26T01:12:08.587Z,11.86
2023-04-26T01:14:35.893Z,11.88
2023-04-26T01:17:03.479Z,11.90
2023-04-26T01:19:29.966Z,11.83
2023-04-26T01:21:56.479Z,11.82
2023-04-26T01:24:23.077Z,11.84
2023-04-26T01:26:49.648Z,11.78
2023-04-26T01:29:17.730Z,11.77
2023-04-26T01:31:45.202Z,11.78
2023-04-26T01:34:12.005Z,11.69
2023-04-26T01:36:38.554Z,11.67
2023-04-26T01:39:05.154Z,11.78
2023-04-26T01:41:31.643Z,11.66
2023-04-26T01:43:58.121Z,11.74
2023-04-26T01:46:24.583Z,11.65
2023-04-26T01:48:51.210Z,11.56
2023-04-26T01:51:17.903Z,11.59
2023-04-26T01:53:44.406Z,11.59
2023-04-26T01:56:10.898Z,11.76
2023-04-26T01:58:37.371Z,11.71
2023-04-26T02:01:09.250Z,11.66
2023-04-26T02:03:36.032Z,11.45
2023-04-26T02:06:02.976Z,11.52
2023-04-26T02:08:29.961Z,11.50
2023-04-26T02:10:56.553Z,11.53
2023-04-26T02:13:23.088Z,11.52
2023-04-26T02:15:50.104Z,11.51
2023-04-26T02:18:16.763Z,11.61
2023-04-26T02:20:44.505Z,11.60
2023-04-26T02:23:12.151Z,11.55
2023-04-26T02:25:39.351Z,11.52
2023-04-26T02:28:06.418Z,11.37
2023-04-26T02:30:33.100Z,11.40
2023-04-26T02:32:59.643Z,11.24
2023-04-26T02:35:26.139Z,11.31
2023-04-26T02:37:52.725Z,11.15
2023-04-26T02:40:19.873Z,11.27
2023-04-26T02:42:46.731Z,11.29
2023-04-26T02:45:13.256Z,11.29
2023-04-26T02:47:40.068Z,11.19
2023-04-26T02:50:08.340Z,11.24
2023-04-26T02:52:36.405Z,11.27
2023-04-26T02:55:03.382Z,11.10
2023-04-26T02:57:30.471Z,11.13
2023-04-26T02:59:57.630Z,11.17
2023-04-26T03:02:24.595Z,11.19
2023-04-26T03:04:51.412Z,11.14
2023-04-26T03:07:17.904Z,11.09
2023-04-26T03:09:44.413Z,11.04
2023-04-26T03:12:11.633Z,10.96
2023-04-26T03:14:38.146Z,11.00
2023-04-26T03:17:04.639Z,10.97
2023-04-26T03:19:31.140Z,10.94
2023-04-26T03:21:57.644Z,10.99
2023-04-26T03:24:24.115Z,10.91
2023-04-26T03:26:50.605Z,10.94
2023-04-26T03:29:17.265Z,11.00
2023-04-26T03:31:43.883Z,10.99
2023-04-26T03:34:10.387Z,10.99
2023-04-26T03:36:36.933Z,10.76
2023-04-26T03:39:03.454Z,10.81
2023-04-26T03:41:29.884Z,10.82
2023-04-26T03:43:56.386Z,10.93
2023-04-26T03:46:22.987Z,10.91
2023-04-26T03:48:49.773Z,10.74
2023-04-26T03:51:16.497Z,10.64
2023-04-26T03:53:43.041Z,10.69
2023-04-26T03:56:09.584Z,10.69
2023-04-26T03:58:36.038Z,10.67
2023-04-26T04:01:02.550Z,10.59
2023-04-26T04:03:29.220Z,10.53
2023-04-26T04:06:07.217Z,10.48
2023-04-26T04:08:36.677Z,10.48
2023-04-26T04:11:03.303Z,10.48
2023-04-26T04:13:29.835Z,10.43
2023-04-26T04:15:56.374Z,10.35
2023-04-26T04:18:22.919Z,10.39
2023-04-26T04:20:49.435Z,10.30
2023-04-26T04:23:16.001Z,10.39
2023-04-26T04:25:42.598Z,10.28
2023-04-26T04:28:09.277Z,10.23
2023-04-26T04:30:35.778Z,10.18
2023-04-26T04:33:02.323Z,10.12
2023-04-26T04:35:31.203Z,10.22
2023-04-26T04:37:57.663Z,10.20
2023-04-26T04:40:25.315Z,10.31
2023-04-26T04:42:52.240Z,10.30
2023-04-26T04:45:20.446Z,10.23
2023-04-26T04:47:46.969Z,10.30
2023-04-26T04:50:13.873Z,10.32
2023-04-26T04:52:40.864Z,10.18
2023-04-26T04:55:07.569Z,10.26
2023-04-26T04:57:34.026Z,10.40
2023-04-26T05:00:00.511Z,10.37
2023-04-26T05:02:27.180Z,10.38
2023-04-26T05:04:53.789Z,10.40
2023-04-26T05:07:23.947Z,10.37
2023-04-26T05:09:51.065Z,10.27
2023-04-26T05:12:17.561Z,10.19
2023-04-26T05:14:44.062Z,10.19
2023-04-26T05:17:10.532Z,10.27
2023-04-26T05:19:36.998Z,10.33
2023-04-26T05:22:03.481Z,10.38
2023-04-26T05:24:30.342Z,10.45
2023-04-26T05:26:58.880Z,10.52
2023-04-26T05:29:29.706Z,10.58
2023-04-26T05:31:56.355Z,10.58
2023-04-26T05:34:23.853Z,10.75
2023-04-26T05:36:50.321Z,10.71
2023-04-26T05:39:17.328Z,10.87
2023-04-26T05:41:43.953Z,11.02
2023-04-26T05:44:10.503Z,11.05
2023-04-26T05:46:36.998Z,11.12
2023-04-26T05:49:03.505Z,11.16
2023-04-26T05:51:30.028Z,11.27
2023-04-26T05:53:56.517Z,11.37
2023-04-26T05:56:23.000Z,11.39
2023-04-26T05:58:49.664Z,11.50
2023-04-26T06:01:16.196Z,11.72
2023-04-26T06:03:44.836Z,11.73
2023-04-26T06:06:11.572Z,11.72
2023-04-26T06:08:38.081Z,11.97
2023-04-26T06:11:04.929Z,12.02
2023-04-26T06:13:31.389Z,12.19
2023-04-26T06:16:02.208Z,12.14
2023-04-26T06:18:28.656Z,12.41
2023-04-26T06:20:55.158Z,12.37
2023-04-26T06:23:21.651Z,12.50
2023-04-26T06:25:48.443Z,12.53
2023-04-26T06:28:15.030Z,12.63
2023-04-26T06:30:42.726Z,12.73
2023-04-26T06:33:09.284Z,12.70
2023-04-26T06:35:42.122Z,12.89
2023-04-26T06:38:08.779Z,12.94
2023-04-26T06:40:35.692Z,12.86
2023-04-26T06:43:02.411Z,12.92
2023-04-26T06:45:29.333Z,13.01
2023-04-26T06:47:55.866Z,12.87
2023-04-26T06:50:22.709Z,13.03
2023-04-26T06:52:49.187Z,13.17
2023-04-26T06:55:15.691Z,13.20
2023-04-26T06:57:42.269Z,13.14
2023-04-26T07:00:09.580Z,13.23
2023-04-26T07:02:36.291Z,13.22
2023-04-26T07:05:03.106Z,13.28
2023-04-26T07:07:29.771Z,13.39
2023-04-26T07:09:56.236Z,13.18
2023-04-26T07:12:22.754Z,13.17
2023-04-26T07:14:49.293Z,13.22
2023-04-26T07:17:15.778Z,13.13
2023-04-26T07:19:42.260Z,13.20
2023-04-26T07:22:08.727Z,13.28
2023-04-26T07:24:35.243Z,13.27
2023-04-26T07:27:01.766Z,13.27
2023-04-26T07:29:28.236Z,13.28
2023-04-26T07:31:54.965Z,13.37
2023-04-26T07:34:21.437Z,13.47
2023-04-26T07:36:47.944Z,13.57
2023-04-26T07:39:14.546Z,13.60
2023-04-26T07:41:43.753Z,13.65
2023-04-26T07:44:10.765Z,13.75
2023-04-26T07:46:37.298Z,13.67
2023-04-26T07:49:03.790Z,13.79
2023-04-26T07:51:30.285Z,13.64
2023-04-26T07:53:56.760Z,13.87
2023-04-26T07:56:23.446Z,13.62
2023-04-26T07:58:50.308Z,13.76
2023-04-26T08:01:17.037Z,13.82
2023-04-26T08:03:43.950Z,13.82
2023-04-26T08:06:10.820Z,13.79
2023-04-26T08:08:37.274Z,13.89
2023-04-26T08:11:07.564Z,13.63
2023-04-26T08:13:34.064Z,13.83
2023-04-26T08:16:00.665Z,13.80
2023-04-26T08:18:27.178Z,13.97
2023-04-26T08:20:53.734Z,13.84
2023-04-26T08:23:20.279Z,13.73
2023-04-26T08:25:47.894Z,13.86
2023-04-26T08:28:14.609Z,13.84
2023-04-26T08:30:41.499Z,14.02
2023-04-26T08:33:09.566Z,14.10
2023-04-26T08:35:36.062Z,14.04
2023-04-26T08:38:02.613Z,13.99
2023-04-26T08:40:29.130Z,14.14
2023-04-26T08:42:55.654Z,14.35
2023-04-26T08:45:22.397Z,14.39
2023-04-26T08:48:04.553Z,14.37
2023-04-26T08:50:34.255Z,14.56
2023-04-26T08:53:00.886Z,14.69
2023-04-26T08:55:28.016Z,14.83
2023-04-26T08:57:55.874Z,14.83
2023-04-26T09:00:22.637Z,14.93
2023-04-26T09:02:51.273Z,14.88
2023-04-26T09:05:18.724Z,15.02
2023-04-26T09:07:46.853Z,14.97
2023-04-26T09:10:19.319Z,14.91
2023-04-26T09:12:45.809Z,14.91
2023-04-26T09:15:15.152Z,14.75
2023-04-26T09:17:41.929Z,14.29
2023-04-26T09:20:30.667Z,14.33
2023-04-26T09:23:08.857Z,14.22
2023-04-26T09:25:36.197Z,14.20
2023-04-26T09:28:04.271Z,14.01
2023-04-26T09:30:37.778Z,14.30
2023-04-26T09:33:04.839Z,14.31
2023-04-26T09:35:35.205Z,14.47
2023-04-26T09:38:12.195Z,14.60
2023-04-26T09:40:41.065Z,14.68
2023-04-26T09:43:13.002Z,14.71
2023-04-26T09:45:52.600Z,14.64
2023-04-26T09:48:31.259Z,14.87
2023-04-26T09:51:08.355Z,14.94
2023-04-26T09:53:41.765Z,15.18
2023-04-26T09:56:15.983Z,14.88
2023-04-26T09:58:48.220Z,14.97
2023-04-26T10:01:16.666Z,15.07
2023-04-26T10:03:44.255Z,14.98
2023-04-26T10:06:16.866Z,14.79
2023-04-26T10:08:44.102Z,14.79
2023-04-26T10:11:10.724Z,14.80
2023-04-26T10:13:38.247Z,14.90
2023-04-26T10:16:05.413Z,15.17
2023-04-26T10:18:37.712Z,15.40
2023-04-26T10:21:25.093Z,15.41
2023-04-26T10:23:52.142Z,15.79
2023-04-26T10:26:50.536Z,15.81
2023-04-26T10:29:17.405Z,15.88
2023-04-26T10:32:02.178Z,15.79
2023-04-26T10:34:31.213Z,15.71
2023-04-26T10:37:16.916Z,15.84
2023-04-26T10:39:45.853Z,15.78
2023-04-26T10:42:29.199Z,15.80
2023-04-26T10:44:58.018Z,15.81
2023-04-26T10:47:36.717Z,15.96
2023-04-26T10:50:14.377Z,15.86
2023-04-26T10:53:02.677Z,16.04
2023-04-26T10:55:39.000Z,16.19
2023-04-26T10:58:28.012Z,16.38
2023-04-26T11:01:05.322Z,16.50
2023-04-26T11:03:32.337Z,16.76
2023-04-26T11:05:59.976Z,16.78
2023-04-26T11:08:28.798Z,16.85
2023-04-26T11:11:12.861Z,16.74
2023-04-26T11:13:41.757Z,17.00
2023-04-26T11:16:12.357Z,17.07
2023-04-26T11:18:42.382Z,17.08
2023-04-26T11:21:09.786Z,17.31
2023-04-26T11:23:36.682Z,17.26
2023-04-26T11:26:06.403Z,17.13
2023-04-26T11:28:35.064Z,17.16
2023-04-26T11:31:03.653Z,17.11
2023-04-26T11:33:30.420Z,17.16
2023-04-26T11:35:58.557Z,17.42
2023-04-26T11:38:27.428Z,17.34
2023-04-26T11:41:04.158Z,17.10
2023-04-26T11:43:38.942Z,17.29
2023-04-26T11:46:07.312Z,17.13
2023-04-26T11:48:38.809Z,17.53
2023-04-26T11:51:07.957Z,17.55
2023-04-26T11:53:41.226Z,17.06
2023-04-26T11:56:18.141Z,16.73
2023-04-26T11:58:47.675Z,17.10
2023-04-26T12:01:21.871Z,17.36
2023-04-26T12:04:00.370Z,17.52
2023-04-26T12:06:35.686Z,17.82
2023-04-26T12:09:10.966Z,18.13
2023-04-26T12:11:38.194Z,18.34
2023-04-26T12:14:04.923Z,18.23
2023-04-26T12:16:31.783Z,18.75
2023-04-26T12:18:58.346Z,18.73
2023-04-26T12:21:25.802Z,19.05
2023-04-26T12:23:52.990Z,18.92
2023-04-26T12:26:19.512Z,19.26
2023-04-26T12:28:46.088Z,19.04
2023-04-26T12:31:12.637Z,19.13
2023-04-26T12:33:39.233Z,19.21
2023-04-26T12:36:12.882Z,19.17
2023-04-26T12:38:39.732Z,19.16
2023-04-26T12:41:06.512Z,18.81
2023-04-26T12:43:33.027Z,18.80
2023-04-26T12:46:00.361Z,18.74
2023-04-26T12:48:26.927Z,18.79
2023-04-26T12:50:53.416Z,19.11
2023-04-26T12:53:19.940Z,19.25
2023-04-26T12:55:46.506Z,19.38
2023-04-26T12:58:13.297Z,19.57
2023-04-26T13:00:39.944Z,19.38
2023-04-26T13:03:06.594Z,19.33
2023-04-26T13:05:33.435Z,19.04
2023-04-26T13:08:00.083Z,18.98
2023-04-26T13:10:26.712Z,18.79
2023-04-26T13:12:53.237Z,18.91
2023-04-26T13:15:19.772Z,18.65
2023-04-26T13:17:46.374Z,18.40
2023-04-26T13:20:13.198Z,18.49
2023-04-26T13:22:39.726Z,18.47
2023-04-26T13:25:06.664Z,18.14
2023-04-26T13:27:33.215Z,18.43
2023-04-26T13:29:59.688Z,18.85
2023-04-26T13:32:26.209Z,19.14
2023-04-26T13:34:52.739Z,19.58
2023-04-26T13:37:19.825Z,19.77
2023-04-26T13:39:47.317Z,20.46
2023-04-26T13:42:14.945Z,21.00
2023-04-26T13:44:41.581Z,21.44
2023-04-26T13:47:08.088Z,21.94
2023-04-26T13:49:34.567Z,22.54
2023-04-26T13:52:01.132Z,23.41
2023-04-26T13:54:27.765Z,22.99
2023-04-26T13:56:54.308Z,23.59
2023-04-26T13:59:20.834Z,23.79
2023-04-26T14:01:47.468Z,24.10
2023-04-26T14:04:14.277Z,24.44
2023-04-26T14:06:40.940Z,24.70
2023-04-26T14:09:07.515Z,25.14
2023-04-26T14:11:34.149Z,25.02
2023-04-26T14:14:00.708Z,25.46
2023-04-26T14:16:27.256Z,25.77
2023-04-26T14:18:53.906Z,25.70
2023-04-26T14:21:20.858Z,25.74
2023-04-26T14:23:47.437Z,25.64
2023-04-26T14:26:14.036Z,26.04
2023-04-26T14:28:40.590Z,26.13
2023-04-26T14:31:07.314Z,26.40
2023-04-26T14:33:34.278Z,26.34
2023-04-26T14:36:00.790Z,26.17
2023-04-26T14:38:27.355Z,25.92
2023-04-26T14:40:53.871Z,25.90
2023-04-26T14:43:20.543Z,25.65
2023-04-26T14:45:47.121Z,25.41
2023-04-26T14:48:13.780Z,24.91
2023-04-26T14:50:40.498Z,24.74
2023-04-26T14:53:07.172Z,24.22
2023-04-26T14:55:33.693Z,23.94
2023-04-26T14:58:00.222Z,23.54
2023-04-26T15:00:29.608Z,23.31
2023-04-26T15:02:56.330Z,22.89
2023-04-26T15:05:23.036Z,22.80
2023-04-26T15:07:49.579Z,22.55
2023-04-26T15:10:16.230Z,22.57
2023-04-26T15:12:42.937Z,22.45
2023-04-26T15:15:09.847Z,22.45
2023-04-26T15:17:36.393Z,22.42
2023-04-26T15:20:03.194Z,22.38
2023-04-26T15:22:29.738Z,22.39
2023-04-26T15:24:56.333Z,22.40
2023-04-26T15:27:22.816Z,22.38
2023-04-26T15:29:49.616Z,22.26
2023-04-26T15:32:16.101Z,22.13
2023-04-26T15:34:42.976Z,22.13
2023-04-26T15:37:09.692Z,21.71
2023-04-26T15:39:36.241Z,21.60
2023-04-26T15:42:03.940Z,21.62
2023-04-26T15:44:30.433Z,21.36
2023-04-26T15:46:57.117Z,21.44
2023-04-26T15:49:26.637Z,21.28
2023-04-26T15:51:53.155Z,21.37
2023-04-26T15:54:19.744Z,21.21
2023-04-26T15:56:46.252Z,20.81
2023-04-26T15:59:13.062Z,20.98
2023-04-26T16:01:40.364Z,20.95
2023-04-26T16:04:07.115Z,20.58
2023-04-26T16:06:33.825Z,20.45
2023-04-26T16:09:01.197Z,20.35
2023-04-26T16:11:28.576Z,20.09
2023-04-26T16:13:58.237Z,19.99
2023-04-26T16:16:24.722Z,20.19
2023-04-26T16:18:51.384Z,20.30
2023-04-26T16:21:18.063Z,20.43
2023-04-26T16:23:44.573Z,20.39
2023-04-26T16:26:11.115Z,20.39
2023-04-26T16:28:37.683Z,19.99
2023-04-26T16:31:04.206Z,20.15
2023-04-26T16:33:30.839Z,20.39
2023-04-26T16:35:57.387Z,20.49
2023-04-26T16:38:23.896Z,20.62
2023-04-26T16:40:58.614Z,20.68
2023-04-26T16:43:30.181Z,20.71
2023-04-26T16:46:02.056Z,20.79
2023-04-26T16:48:31.560Z,20.86
2023-04-26T16:50:59.696Z,20.86
2023-04-26T16:53:26.302Z,20.79
2023-04-26T16:55:52.841Z,20.79
2023-04-26T16:58:19.417Z,20.75
2023-04-26T17:00:46.256Z,20.90
2023-04-26T17:03:13.004Z,20.69
2023-04-26T17:05:44.984Z,20.58
2023-04-26T17:08:11.571Z,20.78
2023-04-26T17:10:38.254Z,20.79
2023-04-26T17:13:06.313Z,20.81
2023-04-26T17:15:33.767Z,20.73
2023-04-26T17:18:01.266Z,20.84
2023-04-26T17:20:32.502Z,20.83
2023-04-26T17:23:00.526Z,20.72
2023-04-26T17:25:27.992Z,20.37
2023-04-26T17:27:54.809Z,20.32
2023-04-26T17:30:22.350Z,20.40
2023-04-26T17:32:48.998Z,20.13
2023-04-26T17:35:15.693Z,20.20
2023-04-26T17:37:42.178Z,19.71
2023-04-26T17:40:09.341Z,19.92
2023-04-26T17:42:36.770Z,19.96
2023-04-26T17:45:03.684Z,19.96
2023-04-26T17:47:30.274Z,19.94
2023-04-26T17:49:56.870Z,19.96
2023-04-26T17:52:23.448Z,19.97
2023-04-26T17:54:49.925Z,19.92
2023-04-26T17:57:16.472Z,19.97
2023-04-26T17:59:42.960Z,20.01
2023-04-26T18:02:09.514Z,20.02
2023-04-26T18:04:36.245Z,20.07
2023-04-26T18:07:02.929Z,20.02
2023-04-26T18:09:29.452Z,19.95
2023-04-26T18:11:55.911Z,19.81
2023-04-26T18:14:22.371Z,19.83
2023-04-26T18:16:48.899Z,19.99
2023-04-26T18:19:15.395Z,19.96
2023-04-26T18:21:41.951Z,19.95
2023-04-26T18:24:08.508Z,19.90
2023-04-26T18:26:35.132Z,19.69
2023-04-26T18:29:01.628Z,19.79
2023-04-26T18:31:28.157Z,19.74
2023-04-26T18:33:54.787Z,19.68
2023-04-26T18:36:21.274Z,19.69
2023-04-26T18:38:47.766Z,19.70
2023-04-26T18:41:14.237Z,19.65
2023-04-26T18:43:40.772Z,19.67
2023-04-26T18:46:07.310Z,19.56
2023-04-26T18:48:33.946Z,19.49
2023-04-26T18:51:00.465Z,19.12
2023-04-26T18:53:26.949Z,18.85
2023-04-26T18:55:53.815Z,18.68
2023-04-26T18:58:20.296Z,18.81
2023-04-26T19:00:46.780Z,18.94
2023-04-26T19:03:13.385Z,18.81
2023-04-26T19:05:43.372Z,18.96
2023-04-26T19:08:09.970Z,18.71
2023-04-26T19:10:36.436Z,18.71
2023-04-26T19:13:03.006Z,18.92
2023-04-26T19:15:29.525Z,19.03
2023-04-26T19:17:56.052Z,19.12
2023-04-26T19:20:23.085Z,19.18
2023-04-26T19:22:49.658Z,19.26
2023-04-26T19:25:16.117Z,19.37
2023-04-26T19:27:42.587Z,19.43
2023-04-26T19:30:09.374Z,19.47
2023-04-26T19:32:35.943Z,19.41
2023-04-26T19:35:02.446Z,19.16
2023-04-26T19:37:29.254Z,19.25
2023-04-26T19:39:55.850Z,18.90
2023-04-26T19:42:22.319Z,18.72
2023-04-26T19:44:48.821Z,18.62
2023-04-26T19:47:15.386Z,18.70
2023-04-26T19:49:41.854Z,18.75
2023-04-26T19:52:08.355Z,18.66
2023-04-26T19:54:34.838Z,18.69
2023-04-26T19:57:01.397Z,18.75
2023-04-26T19:59:27.923Z,18.17
2023-04-26T20:01:54.541Z,18.41
2023-04-26T20:04:21.180Z,18.19
2023-04-26T20:06:47.985Z,18.14
2023-04-26T20:09:14.935Z,18.08
2023-04-26T20:11:41.468Z,17.81
2023-04-26T20:14:07.962Z,17.81
2023-04-26T20:16:34.493Z,17.65
2023-04-26T20:19:01.053Z,17.76
2023-04-26T20:21:29.010Z,17.98
2023-04-26T20:23:55.780Z,18.21
2023-04-26T20:26:22.293Z,18.25
2023-04-26T20:28:48.770Z,18.14
2023-04-26T20:31:15.331Z,18.34
2023-04-26T20:33:41.808Z,18.36
2023-04-26T20:36:08.342Z,18.50
2023-04-26T20:38:35.007Z,18.60
2023-04-26T20:41:01.485Z,18.65
2023-04-26T20:43:28.081Z,18.63
2023-04-26T20:45:54.618Z,18.69
2023-04-26T20:48:21.358Z,18.74
2023-04-26T20:50:47.869Z,18.80
2023-04-26T20:53:14.365Z,18.81
2023-04-26T20:55:40.868Z,18.80
2023-04-26T20:58:07.437Z,18.79
2023-04-26T21:00:33.967Z,18.82
2023-04-26T21:03:00.579Z,18.71
2023-04-26T21:05:27.267Z,18.45
2023-04-26T21:07:53.885Z,18.72
2023-04-26T21:10:20.581Z,18.66
2023-04-26T21:12:47.128Z,18.72
2023-04-26T21:15:13.683Z,18.82
2023-04-26T21:17:40.265Z,18.84
2023-04-26T21:20:07.413Z,18.85
2023-04-26T21:22:34.085Z,18.88
2023-04-26T21:25:00.608Z,18.86
2023-04-26T21:27:27.149Z,18.79
2023-04-26T21:29:53.715Z,18.75
2023-04-26T21:32:20.461Z,18.69
2023-04-26T21:34:46.977Z,18.74
2023-04-26T21:37:13.587Z,18.55
2023-04-26T21:39:40.099Z,18.34
2023-04-26T21:42:06.598Z,18.40
2023-04-26T21:44:33.097Z,18.05
2023-04-26T21:46:59.718Z,17.91
2023-04-26T21:49:26.365Z,17.28
2023-04-26T21:51:52.879Z,17.14
2023-04-26T21:54:19.563Z,16.63
2023-04-26T21:56:46.090Z,16.68
2023-04-26T21:59:13.602Z,16.41
2023-04-26T22:01:40.094Z,16.82
2023-04-26T22:04:06.768Z,16.99
2023-04-26T22:06:33.324Z,17.20
2023-04-26T22:08:59.780Z,17.33
2023-04-26T22:11:26.660Z,17.41
2023-04-26T22:13:53.164Z,17.44
2023-04-26T22:16:19.710Z,17.38
2023-04-26T22:18:48.457Z,17.39
2023-04-26T22:21:15.060Z,17.45
2023-04-26T22:23:41.647Z,17.41
2023-04-26T22:26:08.180Z,17.34
2023-04-26T22:28:34.664Z,17.24
2023-04-26T22:31:04.339Z,17.26
2023-04-26T22:33:30.852Z,17.23
2023-04-26T22:35:57.581Z,17.19
2023-04-26T22:38:29.015Z,17.17
2023-04-26T22:40:55.632Z,17.08
2023-04-26T22:43:24.259Z,17.02
2023-04-26T22:45:50.985Z,17.01
2023-04-26T22:48:17.706Z,17.07
2023-04-26T22:50:44.241Z,17.06
2023-04-26T22:53:10.834Z,17.08
2023-04-26T22:55:37.354Z,17.12
2023-04-26T22:58:05.825Z,17.14
2023-04-26T23:00:35.292Z,17.14
2023-04-26T23:03:01.959Z,17.13
2023-04-26T23:05:28.547Z,17.17
2023-04-26T23:07:55.029Z,17.21
2023-04-26T23:10:21.579Z,17.20
2023-04-26T23:12:49.767Z,17.17
2023-04-26T23:15:16.284Z,17.15
2023-04-26T23:17:42.801Z,17.18
2023-04-26T23:20:09.777Z,17.21
2023-04-26T23:22:36.256Z,17.22
2023-04-26T23:25:02.754Z,17.16
2023-04-26T23:27:29.253Z,17.20
2023-04-26T23:29:55.756Z,17.17
2023-04-26T23:32:22.227Z,17.14
2023-04-26T23:34:48.694Z,17.09
2023-04-26T23:37:15.177Z,17.10
2023-04-26T23:39:42.160Z,17.10
2023-04-26T23:42:08.756Z,17.11
2023-04-26T23:44:35.497Z,17.12
2023-04-26T23:47:02.025Z,17.09
2023-04-26T23:49:28.540Z,17.04
2023-04-26T23:51:55.033Z,16.96
2023-04-26T23:54:21.568Z,16.89
2023-04-26T23:56:48.187Z,16.85
2023-04-26T23:59:14.881Z,16.44
